Terminal Aerodrome Forecast
Issued by NWS Twin Cities, MN

Home | Current Version | Previous Version | Graphics & Text | Print | Product List | Glossary On
Versions: 1 2 3 4 5 6 7 8 9 10 11 12 13 14 15
951
FTUS43 KMPX 191120
TAFEAU
TAF
KEAU 191120Z 1912/2012 31003KT P6SM SCT250
     FM192300 00000KT P6SM SKC
     FM200900 00000KT 3SM BR SCT150
     FM201000 00000KT 3/4SM BR SCT002=

USA.gov is the U.S. government's official web portal to all federal, state and local government web resources and services.